sensor_id;sensor_type;location;lat;lon;timestamp;P1;durP1;ratioP1;P2;durP2;ratioP2
48006;SDS011;33771;48.180;11.400;2023-04-01T00:00:57;2.27;;;0.90;;
48006;SDS011;33771;48.180;11.400;2023-04-01T00:03:24;1.60;;;0.90;;
48006;SDS011;33771;48.180;11.400;2023-04-01T00:05:51;3.53;;;1.00;;
48006;SDS011;33771;48.180;11.400;2023-04-01T00:08:18;2.93;;;1.00;;
48006;SDS011;33771;48.180;11.400;2023-04-01T00:10:43;2.47;;;0.83;;
48006;SDS011;33771;48.180;11.400;2023-04-01T00:13:10;2.73;;;0.90;;
48006;SDS011;33771;48.180;11.400;2023-04-01T00:15:35;2.00;;;0.80;;
48006;SDS011;33771;48.180;11.400;2023-04-01T00:18:04;2.83;;;0.90;;
48006;SDS011;33771;48.180;11.400;2023-04-01T00:20:31;3.10;;;1.30;;
48006;SDS011;33771;48.180;11.400;2023-04-01T00:23:00;4.30;;;1.30;;
48006;SDS011;33771;48.180;11.400;2023-04-01T00:25:26;3.50;;;1.10;;
48006;SDS011;33771;48.180;11.400;2023-04-01T00:27:51;3.80;;;1.20;;
48006;SDS011;33771;48.180;11.400;2023-04-01T00:30:17;2.77;;;1.20;;
48006;SDS011;33771;48.180;11.400;2023-04-01T00:32:43;3.37;;;1.10;;
48006;SDS011;33771;48.180;11.400;2023-04-01T00:35:09;5.00;;;1.47;;
48006;SDS011;33771;48.180;11.400;2023-04-01T00:37:37;3.33;;;1.23;;
48006;SDS011;33771;48.180;11.400;2023-04-01T00:40:19;2.13;;;0.80;;
48006;SDS011;33771;48.180;11.400;2023-04-01T00:42:49;6.38;;;1.27;;
48006;SDS011;33771;48.180;11.400;2023-04-01T00:45:25;3.73;;;1.00;;
48006;SDS011;33771;48.180;11.400;2023-04-01T00:47:51;3.13;;;1.00;;
48006;SDS011;33771;48.180;11.400;2023-04-01T00:50:18;3.63;;;1.10;;
48006;SDS011;33771;48.180;11.400;2023-04-01T00:52:44;3.03;;;1.10;;
48006;SDS011;33771;48.180;11.400;2023-04-01T00:55:11;2.87;;;1.00;;
48006;SDS011;33771;48.180;11.400;2023-04-01T00:57:38;5.17;;;1.10;;
48006;SDS011;33771;48.180;11.400;2023-04-01T01:00:08;2.70;;;0.90;;
48006;SDS011;33771;48.180;11.400;2023-04-01T01:02:37;3.10;;;0.97;;
48006;SDS011;33771;48.180;11.400;2023-04-01T01:05:04;4.27;;;0.90;;
48006;SDS011;33771;48.180;11.400;2023-04-01T01:07:36;3.93;;;0.80;;
48006;SDS011;33771;48.180;11.400;2023-04-01T01:10:16;2.90;;;0.87;;
48006;SDS011;33771;48.180;11.400;2023-04-01T01:12:46;4.23;;;1.00;;
48006;SDS011;33771;48.180;11.400;2023-04-01T01:15:41;10.87;;;1.47;;
48006;SDS011;33771;48.180;11.400;2023-04-01T01:18:19;3.57;;;0.90;;
48006;SDS011;33771;48.180;11.400;2023-04-01T01:20:57;4.47;;;1.00;;
48006;SDS011;33771;48.180;11.400;2023-04-01T01:32:13;2.17;;;0.88;;
48006;SDS011;33771;48.180;11.400;2023-04-01T01:37:22;2.40;;;1.00;;
48006;SDS011;33771;48.180;11.400;2023-04-01T01:39:52;3.23;;;0.70;;
48006;SDS011;33771;48.180;11.400;2023-04-01T01:42:21;3.73;;;1.20;;
48006;SDS011;33771;48.180;11.400;2023-04-01T01:44:49;7.30;;;1.10;;
48006;SDS011;33771;48.180;11.400;2023-04-01T01:47:17;7.23;;;1.13;;
48006;SDS011;33771;48.180;11.400;2023-04-01T01:49:44;2.30;;;1.20;;
48006;SDS011;33771;48.180;11.400;2023-04-01T01:52:11;4.63;;;0.93;;
48006;SDS011;33771;48.180;11.400;2023-04-01T01:54:46;1.43;;;0.70;;
48006;SDS011;33771;48.180;11.400;2023-04-01T01:57:16;3.80;;;1.20;;
48006;SDS011;33771;48.180;11.400;2023-04-01T01:59:45;1.70;;;0.80;;
48006;SDS011;33771;48.180;11.400;2023-04-01T02:02:13;5.27;;;1.20;;
48006;SDS011;33771;48.180;11.400;2023-04-01T02:04:40;1.80;;;0.80;;
48006;SDS011;33771;48.180;11.400;2023-04-01T02:07:10;3.10;;;1.10;;
48006;SDS011;33771;48.180;11.400;2023-04-01T02:09:45;2.10;;;0.70;;
48006;SDS011;33771;48.180;11.400;2023-04-01T02:12:12;1.80;;;0.60;;
48006;SDS011;33771;48.180;11.400;2023-04-01T02:17:26;1.37;;;0.60;;
48006;SDS011;33771;48.180;11.400;2023-04-01T02:20:01;1.63;;;0.67;;
48006;SDS011;33771;48.180;11.400;2023-04-01T02:22:34;0.63;;;0.50;;
48006;SDS011;33771;48.180;11.400;2023-04-01T02:25:10;1.30;;;0.60;;
48006;SDS011;33771;48.180;11.400;2023-04-01T02:27:40;1.73;;;0.67;;
48006;SDS011;33771;48.180;11.400;2023-04-01T02:30:08;2.50;;;0.80;;
48006;SDS011;33771;48.180;11.400;2023-04-01T02:32:34;2.20;;;0.67;;
48006;SDS011;33771;48.180;11.400;2023-04-01T02:35:03;3.27;;;1.40;;
48006;SDS011;33771;48.180;11.400;2023-04-01T02:37:36;2.27;;;0.60;;
48006;SDS011;33771;48.180;11.400;2023-04-01T02:40:08;1.87;;;0.60;;
48006;SDS011;33771;48.180;11.400;2023-04-01T02:42:36;3.13;;;1.00;;
48006;SDS011;33771;48.180;11.400;2023-04-01T02:45:02;2.13;;;1.03;;
48006;SDS011;33771;48.180;11.400;2023-04-01T02:47:28;2.10;;;1.00;;
48006;SDS011;33771;48.180;11.400;2023-04-01T02:49:54;2.10;;;0.93;;
48006;SDS011;33771;48.180;11.400;2023-04-01T02:52:23;3.17;;;1.00;;
48006;SDS011;33771;48.180;11.400;2023-04-01T02:54:50;2.43;;;0.83;;
48006;SDS011;33771;48.180;11.400;2023-04-01T02:57:15;1.33;;;0.63;;
48006;SDS011;33771;48.180;11.400;2023-04-01T02:59:41;2.13;;;0.97;;
48006;SDS011;33771;48.180;11.400;2023-04-01T03:02:06;1.63;;;0.70;;
48006;SDS011;33771;48.180;11.400;2023-04-01T03:04:32;0.93;;;0.70;;
48006;SDS011;33771;48.180;11.400;2023-04-01T03:06:58;1.33;;;0.70;;
48006;SDS011;33771;48.180;11.400;2023-04-01T03:09:23;2.80;;;0.70;;
48006;SDS011;33771;48.180;11.400;2023-04-01T03:11:49;1.57;;;0.60;;
48006;SDS011;33771;48.180;11.400;2023-04-01T03:14:15;1.03;;;0.50;;
48006;SDS011;33771;48.180;11.400;2023-04-01T03:16:40;1.10;;;0.57;;
48006;SDS011;33771;48.180;11.400;2023-04-01T03:19:06;1.83;;;0.60;;
48006;SDS011;33771;48.180;11.400;2023-04-01T03:21:31;0.80;;;0.50;;
48006;SDS011;33771;48.180;11.400;2023-04-01T03:23:57;0.83;;;0.50;;
48006;SDS011;33771;48.180;11.400;2023-04-01T03:26:23;0.50;;;0.50;;
48006;SDS011;33771;48.180;11.400;2023-04-01T03:28:49;1.27;;;0.60;;
48006;SDS011;33771;48.180;11.400;2023-04-01T03:31:15;0.50;;;0.50;;
48006;SDS011;33771;48.180;11.400;2023-04-01T03:33:41;0.80;;;0.60;;
48006;SDS011;33771;48.180;11.400;2023-04-01T03:36:07;1.47;;;0.53;;
48006;SDS011;33771;48.180;11.400;2023-04-01T03:38:33;0.40;;;0.40;;
48006;SDS011;33771;48.180;11.400;2023-04-01T03:41:00;1.90;;;0.80;;
48006;SDS011;33771;48.180;11.400;2023-04-01T03:43:25;3.07;;;0.50;;
48006;SDS011;33771;48.180;11.400;2023-04-01T03:45:51;0.77;;;0.50;;
48006;SDS011;33771;48.180;11.400;2023-04-01T03:48:19;1.43;;;0.80;;
48006;SDS011;33771;48.180;11.400;2023-04-01T03:50:45;0.47;;;0.40;;
48006;SDS011;33771;48.180;11.400;2023-04-01T03:53:11;1.17;;;0.60;;
48006;SDS011;33771;48.180;11.400;2023-04-01T03:55:39;0.43;;;0.40;;
48006;SDS011;33771;48.180;11.400;2023-04-01T03:58:05;0.70;;;0.60;;
48006;SDS011;33771;48.180;11.400;2023-04-01T04:00:31;1.43;;;0.60;;
48006;SDS011;33771;48.180;11.400;2023-04-01T04:02:56;0.67;;;0.60;;
48006;SDS011;33771;48.180;11.400;2023-04-01T04:05:23;2.30;;;0.90;;
48006;SDS011;33771;48.180;11.400;2023-04-01T04:07:49;2.47;;;0.60;;
48006;SDS011;33771;48.180;11.400;2023-04-01T04:10:15;2.80;;;0.70;;
48006;SDS011;33771;48.180;11.400;2023-04-01T04:12:41;1.70;;;0.80;;
48006;SDS011;33771;48.180;11.400;2023-04-01T04:15:07;1.80;;;0.80;;
48006;SDS011;33771;48.180;11.400;2023-04-01T04:17:33;1.13;;;0.60;;
48006;SDS011;33771;48.180;11.400;2023-04-01T04:19:58;2.33;;;0.80;;
48006;SDS011;33771;48.180;11.400;2023-04-01T04:22:24;2.07;;;0.70;;
48006;SDS011;33771;48.180;11.400;2023-04-01T04:24:50;3.03;;;0.80;;
48006;SDS011;33771;48.180;11.400;2023-04-01T04:27:15;1.23;;;0.70;;
48006;SDS011;33771;48.180;11.400;2023-04-01T04:29:41;1.43;;;0.60;;
48006;SDS011;33771;48.180;11.400;2023-04-01T04:32:07;1.10;;;0.60;;
48006;SDS011;33771;48.180;11.400;2023-04-01T04:34:32;2.13;;;0.70;;
48006;SDS011;33771;48.180;11.400;2023-04-01T04:36:59;2.60;;;0.70;;
48006;SDS011;33771;48.180;11.400;2023-04-01T04:39:25;1.33;;;0.60;;
48006;SDS011;33771;48.180;11.400;2023-04-01T04:41:50;2.23;;;0.90;;
48006;SDS011;33771;48.180;11.400;2023-04-01T04:44:16;2.73;;;0.60;;
48006;SDS011;33771;48.180;11.400;2023-04-01T04:46:41;1.47;;;0.70;;
48006;SDS011;33771;48.180;11.400;2023-04-01T04:49:09;3.13;;;1.13;;
48006;SDS011;33771;48.180;11.400;2023-04-01T04:51:35;1.33;;;0.90;;
48006;SDS011;33771;48.180;11.400;2023-04-01T04:54:02;1.57;;;0.80;;
48006;SDS011;33771;48.180;11.400;2023-04-01T04:56:28;1.73;;;0.80;;
48006;SDS011;33771;48.180;11.400;2023-04-01T04:58:54;4.00;;;0.83;;
48006;SDS011;33771;48.180;11.400;2023-04-01T05:01:20;3.03;;;0.80;;
48006;SDS011;33771;48.180;11.400;2023-04-01T05:03:45;1.07;;;0.70;;
48006;SDS011;33771;48.180;11.400;2023-04-01T05:06:12;2.00;;;0.67;;
48006;SDS011;33771;48.180;11.400;2023-04-01T05:08:39;3.80;;;0.97;;
48006;SDS011;33771;48.180;11.400;2023-04-01T05:11:09;3.30;;;0.83;;
48006;SDS011;33771;48.180;11.400;2023-04-01T05:13:39;3.13;;;1.03;;
48006;SDS011;33771;48.180;11.400;2023-04-01T05:16:11;2.03;;;0.90;;
48006;SDS011;33771;48.180;11.400;2023-04-01T05:18:38;1.97;;;0.90;;
48006;SDS011;33771;48.180;11.400;2023-04-01T05:21:06;3.37;;;1.20;;
48006;SDS011;33771;48.180;11.400;2023-04-01T05:23:33;4.17;;;1.40;;
48006;SDS011;33771;48.180;11.400;2023-04-01T05:26:02;2.57;;;0.90;;
48006;SDS011;33771;48.180;11.400;2023-04-01T05:28:34;2.87;;;0.90;;
48006;SDS011;33771;48.180;11.400;2023-04-01T05:31:01;2.90;;;0.80;;
48006;SDS011;33771;48.180;11.400;2023-04-01T05:33:27;2.50;;;0.70;;
48006;SDS011;33771;48.180;11.400;2023-04-01T05:35:53;2.40;;;0.93;;
48006;SDS011;33771;48.180;11.400;2023-04-01T05:38:19;2.67;;;0.90;;
48006;SDS011;33771;48.180;11.400;2023-04-01T05:40:44;5.43;;;1.00;;
48006;SDS011;33771;48.180;11.400;2023-04-01T05:43:10;4.93;;;0.90;;
48006;SDS011;33771;48.180;11.400;2023-04-01T05:45:36;4.80;;;1.10;;
48006;SDS011;33771;48.180;11.400;2023-04-01T05:48:02;3.13;;;0.80;;
48006;SDS011;33771;48.180;11.400;2023-04-01T05:50:28;3.30;;;1.00;;
48006;SDS011;33771;48.180;11.400;2023-04-01T05:52:54;1.70;;;0.70;;
48006;SDS011;33771;48.180;11.400;2023-04-01T05:55:20;2.20;;;0.80;;
48006;SDS011;33771;48.180;11.400;2023-04-01T05:57:46;2.67;;;0.90;;
48006;SDS011;33771;48.180;11.400;2023-04-01T06:00:13;1.77;;;0.73;;
48006;SDS011;33771;48.180;11.400;2023-04-01T06:02:39;2.17;;;0.70;;
48006;SDS011;33771;48.180;11.400;2023-04-01T06:05:17;4.93;;;1.00;;
48006;SDS011;33771;48.180;11.400;2023-04-01T06:07:48;2.27;;;0.90;;
48006;SDS011;33771;48.180;11.400;2023-04-01T06:10:19;2.53;;;0.90;;
48006;SDS011;33771;48.180;11.400;2023-04-01T06:15:22;3.67;;;1.10;;
48006;SDS011;33771;48.180;11.400;2023-04-01T06:18:03;3.87;;;0.70;;
48006;SDS011;33771;48.180;11.400;2023-04-01T06:23:47;3.80;;;1.07;;
48006;SDS011;33771;48.180;11.400;2023-04-01T06:40:51;2.67;;;1.00;;
48006;SDS011;33771;48.180;11.400;2023-04-01T06:46:24;1.97;;;0.80;;
48006;SDS011;33771;48.180;11.400;2023-04-01T06:52:35;2.30;;;0.90;;
48006;SDS011;33771;48.180;11.400;2023-04-01T06:58:19;2.90;;;0.80;;
48006;SDS011;33771;48.180;11.400;2023-04-01T07:00:48;2.65;;;0.98;;
48006;SDS011;33771;48.180;11.400;2023-04-01T07:03:59;4.53;;;1.13;;
48006;SDS011;33771;48.180;11.400;2023-04-01T07:06:38;2.53;;;1.23;;
48006;SDS011;33771;48.180;11.400;2023-04-01T07:09:12;2.90;;;1.00;;
48006;SDS011;33771;48.180;11.400;2023-04-01T07:11:43;5.30;;;0.90;;
48006;SDS011;33771;48.180;11.400;2023-04-01T07:22:35;2.80;;;0.70;;
48006;SDS011;33771;48.180;11.400;2023-04-01T07:25:05;2.60;;;0.73;;
48006;SDS011;33771;48.180;11.400;2023-04-01T07:28:05;1.53;;;0.70;;
48006;SDS011;33771;48.180;11.400;2023-04-01T07:30:45;2.07;;;0.90;;
48006;SDS011;33771;48.180;11.400;2023-04-01T07:39:28;3.33;;;0.90;;
48006;SDS011;33771;48.180;11.400;2023-04-01T07:47:54;2.17;;;0.90;;
48006;SDS011;33771;48.180;11.400;2023-04-01T07:50:37;1.40;;;0.70;;
48006;SDS011;33771;48.180;11.400;2023-04-01T07:53:23;1.73;;;0.63;;
48006;SDS011;33771;48.180;11.400;2023-04-01T08:13:02;2.43;;;0.60;;
48006;SDS011;33771;48.180;11.400;2023-04-01T08:21:01;1.37;;;0.50;;
48006;SDS011;33771;48.180;11.400;2023-04-01T08:23:45;1.93;;;0.60;;
48006;SDS011;33771;48.180;11.400;2023-04-01T08:26:23;1.47;;;0.60;;
48006;SDS011;33771;48.180;11.400;2023-04-01T08:34:22;2.37;;;1.20;;
48006;SDS011;33771;48.180;11.400;2023-04-01T08:36:52;0.67;;;0.47;;
48006;SDS011;33771;48.180;11.400;2023-04-01T08:39:30;1.63;;;0.50;;
48006;SDS011;33771;48.180;11.400;2023-04-01T08:44:41;1.60;;;0.80;;
48006;SDS011;33771;48.180;11.400;2023-04-01T08:47:34;2.07;;;0.50;;
48006;SDS011;33771;48.180;11.400;2023-04-01T08:50:36;1.87;;;0.60;;
48006;SDS011;33771;48.180;11.400;2023-04-01T08:56:12;1.73;;;0.50;;
48006;SDS011;33771;48.180;11.400;2023-04-01T09:01:38;1.75;;;0.52;;
48006;SDS011;33771;48.180;11.400;2023-04-01T09:09:49;1.55;;;0.45;;
48006;SDS011;33771;48.180;11.400;2023-04-01T09:12:51;1.02;;;0.50;;
48006;SDS011;33771;48.180;11.400;2023-04-01T09:15:26;0.57;;;0.57;;
48006;SDS011;33771;48.180;11.400;2023-04-01T09:18:13;3.72;;;0.73;;
48006;SDS011;33771;48.180;11.400;2023-04-01T09:29:10;0.47;;;0.40;;
48006;SDS011;33771;48.180;11.400;2023-04-01T09:37:50;3.10;;;0.77;;
48006;SDS011;33771;48.180;11.400;2023-04-01T09:40:26;1.02;;;0.40;;
48006;SDS011;33771;48.180;11.400;2023-04-01T09:48:37;0.40;;;0.32;;
48006;SDS011;33771;48.180;11.400;2023-04-01T10:05:38;0.45;;;0.40;;
48006;SDS011;33771;48.180;11.400;2023-04-01T10:08:29;1.08;;;0.50;;
48006;SDS011;33771;48.180;11.400;2023-04-01T10:19:51;1.48;;;0.45;;
48006;SDS011;33771;48.180;11.400;2023-04-01T10:27:58;0.43;;;0.40;;
48006;SDS011;33771;48.180;11.400;2023-04-01T10:41:48;0.40;;;0.40;;
48006;SDS011;33771;48.180;11.400;2023-04-01T10:50:13;0.40;;;0.40;;
48006;SDS011;33771;48.180;11.400;2023-04-01T10:56:00;0.30;;;0.30;;
48006;SDS011;33771;48.180;11.400;2023-04-01T11:08:11;0.98;;;0.40;;
48006;SDS011;33771;48.180;11.400;2023-04-01T11:16:26;0.70;;;0.50;;
48006;SDS011;33771;48.180;11.400;2023-04-01T11:28:08;0.47;;;0.47;;
48006;SDS011;33771;48.180;11.400;2023-04-01T11:31:01;0.50;;;0.50;;
48006;SDS011;33771;48.180;11.400;2023-04-01T11:41:32;3.23;;;0.50;;
48006;SDS011;33771;48.180;11.400;2023-04-01T11:44:19;0.50;;;0.50;;
48006;SDS011;33771;48.180;11.400;2023-04-01T11:58:06;0.70;;;0.50;;
48006;SDS011;33771;48.180;11.400;2023-04-01T12:12:13;0.75;;;0.52;;
48006;SDS011;33771;48.180;11.400;2023-04-01T12:31:58;0.60;;;0.60;;
48006;SDS011;33771;48.180;11.400;2023-04-01T12:34:37;0.60;;;0.60;;
48006;SDS011;33771;48.180;11.400;2023-04-01T12:40:09;0.57;;;0.50;;
48006;SDS011;33771;48.180;11.400;2023-04-01T12:45:35;0.40;;;0.40;;
48006;SDS011;33771;48.180;11.400;2023-04-01T12:51:04;0.50;;;0.50;;
48006;SDS011;33771;48.180;11.400;2023-04-01T12:59:04;0.50;;;0.50;;
48006;SDS011;33771;48.180;11.400;2023-04-01T13:04:22;2.23;;;0.60;;
48006;SDS011;33771;48.180;11.400;2023-04-01T13:09:54;1.07;;;0.60;;
48006;SDS011;33771;48.180;11.400;2023-04-01T13:23:48;0.83;;;0.53;;
48006;SDS011;33771;48.180;11.400;2023-04-01T13:29:32;0.50;;;0.50;;
48006;SDS011;33771;48.180;11.400;2023-04-01T13:37:52;0.70;;;0.60;;
48006;SDS011;33771;48.180;11.400;2023-04-01T13:40:49;0.77;;;0.43;;
48006;SDS011;33771;48.180;11.400;2023-04-01T13:43:39;0.77;;;0.60;;
48006;SDS011;33771;48.180;11.400;2023-04-01T13:51:45;0.50;;;0.50;;
48006;SDS011;33771;48.180;11.400;2023-04-01T14:02:42;0.50;;;0.50;;
48006;SDS011;33771;48.180;11.400;2023-04-01T14:05:44;0.63;;;0.50;;
48006;SDS011;33771;48.180;11.400;2023-04-01T14:08:36;0.60;;;0.50;;
48006;SDS011;33771;48.180;11.400;2023-04-01T14:11:27;1.93;;;0.70;;
48006;SDS011;33771;48.180;11.400;2023-04-01T14:28:47;0.50;;;0.50;;
48006;SDS011;33771;48.180;11.400;2023-04-01T14:31:59;0.57;;;0.50;;
48006;SDS011;33771;48.180;11.400;2023-04-01T14:34:34;0.60;;;0.50;;
48006;SDS011;33771;48.180;11.400;2023-04-01T14:45:46;0.60;;;0.60;;
48006;SDS011;33771;48.180;11.400;2023-04-01T14:48:32;0.70;;;0.50;;
48006;SDS011;33771;48.180;11.400;2023-04-01T14:54:05;1.60;;;0.60;;
48006;SDS011;33771;48.180;11.400;2023-04-01T14:56:48;0.53;;;0.50;;
48006;SDS011;33771;48.180;11.400;2023-04-01T15:04:57;0.63;;;0.60;;
48006;SDS011;33771;48.180;11.400;2023-04-01T15:08:00;1.03;;;0.60;;
48006;SDS011;33771;48.180;11.400;2023-04-01T15:13:44;0.80;;;0.60;;
48006;SDS011;33771;48.180;11.400;2023-04-01T15:27:33;0.77;;;0.50;;
48006;SDS011;33771;48.180;11.400;2023-04-01T15:38:06;0.67;;;0.60;;
48006;SDS011;33771;48.180;11.400;2023-04-01T15:41:12;0.50;;;0.43;;
48006;SDS011;33771;48.180;11.400;2023-04-01T15:43:43;0.77;;;0.60;;
48006;SDS011;33771;48.180;11.400;2023-04-01T15:49:03;1.27;;;0.60;;
48006;SDS011;33771;48.180;11.400;2023-04-01T15:51:45;1.10;;;0.60;;
48006;SDS011;33771;48.180;11.400;2023-04-01T15:56:59;1.03;;;0.60;;
48006;SDS011;33771;48.180;11.400;2023-04-01T15:59:53;1.00;;;0.50;;
48006;SDS011;33771;48.180;11.400;2023-04-01T16:02:28;0.50;;;0.50;;
48006;SDS011;33771;48.180;11.400;2023-04-01T16:08:07;0.50;;;0.50;;
48006;SDS011;33771;48.180;11.400;2023-04-01T16:10:52;0.87;;;0.57;;
48006;SDS011;33771;48.180;11.400;2023-04-01T16:13:42;1.00;;;0.60;;
48006;SDS011;33771;48.180;11.400;2023-04-01T16:19:51;0.53;;;0.53;;
48006;SDS011;33771;48.180;11.400;2023-04-01T16:28:11;2.00;;;0.53;;
48006;SDS011;33771;48.180;11.400;2023-04-01T16:36:29;0.63;;;0.50;;
48006;SDS011;33771;48.180;11.400;2023-04-01T16:41:52;0.57;;;0.57;;
48006;SDS011;33771;48.180;11.400;2023-04-01T16:44:44;0.50;;;0.50;;
48006;SDS011;33771;48.180;11.400;2023-04-01T16:47:12;1.03;;;0.40;;
48006;SDS011;33771;48.180;11.400;2023-04-01T16:50:29;1.10;;;0.57;;
48006;SDS011;33771;48.180;11.400;2023-04-01T16:53:17;0.97;;;0.53;;
48006;SDS011;33771;48.180;11.400;2023-04-01T16:56:04;2.90;;;0.80;;
48006;SDS011;33771;48.180;11.400;2023-04-01T16:58:40;0.70;;;0.50;;
48006;SDS011;33771;48.180;11.400;2023-04-01T17:01:27;1.70;;;0.60;;
48006;SDS011;33771;48.180;11.400;2023-04-01T17:13:00;2.07;;;0.60;;
48006;SDS011;33771;48.180;11.400;2023-04-01T17:23:41;2.10;;;0.80;;
48006;SDS011;33771;48.180;11.400;2023-04-01T17:29:04;2.33;;;0.80;;
48006;SDS011;33771;48.180;11.400;2023-04-01T17:34:56;1.43;;;0.90;;
48006;SDS011;33771;48.180;11.400;2023-04-01T17:37:51;2.37;;;1.27;;
48006;SDS011;33771;48.180;11.400;2023-04-01T17:40:35;1.00;;;0.80;;
48006;SDS011;33771;48.180;11.400;2023-04-01T17:43:26;0.60;;;0.60;;
48006;SDS011;33771;48.180;11.400;2023-04-01T17:49:33;1.57;;;0.70;;
48006;SDS011;33771;48.180;11.400;2023-04-01T17:52:24;1.27;;;0.90;;
48006;SDS011;33771;48.180;11.400;2023-04-01T17:55:45;1.13;;;0.67;;
48006;SDS011;33771;48.180;11.400;2023-04-01T17:57:54;2.63;;;0.80;;
48006;SDS011;33771;48.180;11.400;2023-04-01T18:16:37;1.10;;;0.60;;
48006;SDS011;33771;48.180;11.400;2023-04-01T18:24:44;1.50;;;1.00;;
48006;SDS011;33771;48.180;11.400;2023-04-01T18:27:23;0.70;;;0.70;;
48006;SDS011;33771;48.180;11.400;2023-04-01T18:29:55;1.00;;;0.85;;
48006;SDS011;33771;48.180;11.400;2023-04-01T18:32:37;1.70;;;0.97;;
48006;SDS011;33771;48.180;11.400;2023-04-01T18:37:48;1.27;;;0.80;;
48006;SDS011;33771;48.180;11.400;2023-04-01T18:40:30;3.07;;;0.93;;
48006;SDS011;33771;48.180;11.400;2023-04-01T18:43:21;1.60;;;0.93;;
48006;SDS011;33771;48.180;11.400;2023-04-01T18:46:09;2.03;;;0.73;;
48006;SDS011;33771;48.180;11.400;2023-04-01T18:51:49;0.97;;;0.80;;
48006;SDS011;33771;48.180;11.400;2023-04-01T18:56:53;1.67;;;1.00;;
48006;SDS011;33771;48.180;11.400;2023-04-01T18:59:39;3.10;;;1.10;;
48006;SDS011;33771;48.180;11.400;2023-04-01T19:02:38;1.13;;;0.90;;
48006;SDS011;33771;48.180;11.400;2023-04-01T19:07:54;3.03;;;1.50;;
48006;SDS011;33771;48.180;11.400;2023-04-01T19:10:48;1.37;;;1.00;;
48006;SDS011;33771;48.180;11.400;2023-04-01T19:22:21;1.90;;;0.90;;
48006;SDS011;33771;48.180;11.400;2023-04-01T19:25:01;1.93;;;1.10;;
48006;SDS011;33771;48.180;11.400;2023-04-01T19:27:53;1.90;;;1.17;;
48006;SDS011;33771;48.180;11.400;2023-04-01T19:30:54;1.00;;;0.83;;
48006;SDS011;33771;48.180;11.400;2023-04-01T19:36:39;1.97;;;1.10;;
48006;SDS011;33771;48.180;11.400;2023-04-01T19:42:24;1.20;;;0.88;;
48006;SDS011;33771;48.180;11.400;2023-04-01T19:44:58;1.63;;;1.10;;
48006;SDS011;33771;48.180;11.400;2023-04-01T19:53:01;4.00;;;1.50;;
48006;SDS011;33771;48.180;11.400;2023-04-01T20:01:41;1.97;;;1.17;;
48006;SDS011;33771;48.180;11.400;2023-04-01T20:04:33;1.53;;;1.00;;
48006;SDS011;33771;48.180;11.400;2023-04-01T20:07:09;1.40;;;1.20;;
48006;SDS011;33771;48.180;11.400;2023-04-01T20:15:40;2.27;;;1.23;;
48006;SDS011;33771;48.180;11.400;2023-04-01T20:18:55;2.07;;;1.20;;
48006;SDS011;33771;48.180;11.400;2023-04-01T20:23:55;2.20;;;1.10;;
48006;SDS011;33771;48.180;11.400;2023-04-01T20:26:25;1.83;;;1.00;;
48006;SDS011;33771;48.180;11.400;2023-04-01T20:37:39;4.13;;;1.43;;
48006;SDS011;33771;48.180;11.400;2023-04-01T20:46:22;5.63;;;2.37;;
48006;SDS011;33771;48.180;11.400;2023-04-01T20:49:04;5.00;;;2.20;;
48006;SDS011;33771;48.180;11.400;2023-04-01T20:51:43;3.10;;;1.67;;
48006;SDS011;33771;48.180;11.400;2023-04-01T20:54:27;2.70;;;1.50;;
48006;SDS011;33771;48.180;11.400;2023-04-01T21:13:33;2.70;;;1.07;;
48006;SDS011;33771;48.180;11.400;2023-04-01T21:19:09;3.80;;;1.27;;
48006;SDS011;33771;48.180;11.400;2023-04-01T21:26:52;1.30;;;0.87;;
48006;SDS011;33771;48.180;11.400;2023-04-01T21:42:41;1.67;;;0.90;;
48006;SDS011;33771;48.180;11.400;2023-04-01T21:45:24;3.97;;;1.20;;
48006;SDS011;33771;48.180;11.400;2023-04-01T21:56:27;1.67;;;0.90;;
48006;SDS011;33771;48.180;11.400;2023-04-01T22:04:47;2.83;;;1.10;;
48006;SDS011;33771;48.180;11.400;2023-04-01T22:07:17;2.47;;;1.00;;
48006;SDS011;33771;48.180;11.400;2023-04-01T22:15:08;1.63;;;0.93;;
48006;SDS011;33771;48.180;11.400;2023-04-01T22:17:51;2.10;;;0.80;;
48006;SDS011;33771;48.180;11.400;2023-04-01T22:23:37;1.10;;;0.70;;
48006;SDS011;33771;48.180;11.400;2023-04-01T22:26:23;1.27;;;0.83;;
48006;SDS011;33771;48.180;11.400;2023-04-01T22:29:11;1.03;;;0.70;;
48006;SDS011;33771;48.180;11.400;2023-04-01T22:40:22;1.80;;;0.80;;
48006;SDS011;33771;48.180;11.400;2023-04-01T22:43:01;3.13;;;0.80;;
48006;SDS011;33771;48.180;11.400;2023-04-01T22:48:26;1.60;;;0.80;;
48006;SDS011;33771;48.180;11.400;2023-04-01T22:56:24;2.77;;;0.80;;
48006;SDS011;33771;48.180;11.400;2023-04-01T22:59:16;1.20;;;0.70;;
48006;SDS011;33771;48.180;11.400;2023-04-01T23:01:44;2.07;;;0.80;;
48006;SDS011;33771;48.180;11.400;2023-04-01T23:04:39;2.72;;;0.80;;
48006;SDS011;33771;48.180;11.400;2023-04-01T23:07:24;1.93;;;0.83;;
48006;SDS011;33771;48.180;11.400;2023-04-01T23:10:27;1.30;;;0.70;;
48006;SDS011;33771;48.180;11.400;2023-04-01T23:13:06;1.10;;;0.70;;
48006;SDS011;33771;48.180;11.400;2023-04-01T23:15:40;1.08;;;0.70;;
48006;SDS011;33771;48.180;11.400;2023-04-01T23:18:27;2.00;;;0.77;;
48006;SDS011;33771;48.180;11.400;2023-04-01T23:23:50;1.90;;;0.77;;
48006;SDS011;33771;48.180;11.400;2023-04-01T23:29:13;2.30;;;0.80;;
48006;SDS011;33771;48.180;11.400;2023-04-01T23:31:41;0.77;;;0.70;;
48006;SDS011;33771;48.180;11.400;2023-04-01T23:36:46;1.97;;;0.90;;
48006;SDS011;33771;48.180;11.400;2023-04-01T23:42:04;1.02;;;0.90;;
48006;SDS011;33771;48.180;11.400;2023-04-01T23:44:38;1.83;;;0.80;;
48006;SDS011;33771;48.180;11.400;2023-04-01T23:47:06;1.63;;;0.80;;
48006;SDS011;33771;48.180;11.400;2023-04-01T23:49:41;2.83;;;0.88;;
48006;SDS011;33771;48.180;11.400;2023-04-01T23:52:17;2.10;;;0.90;;
48006;SDS011;33771;48.180;11.400;2023-04-01T23:57:33;1.93;;;0.70;;
